Time;durP1;ratioP1;P1;durP2;ratioP2;P2;SDS_P1;SDS_P2;PMS_P1;PMS_P2;Temp;Humidity;BMP_temperature;BMP_pressure;BME280_temperature;BME280_humidity;BME280_pressure;Samples;Min_cycle;Max_cycle;Signal;HPM_P1;HPM_P2
2022/06/06 00:01:12;;;;;;;19.08;15.52;;;15.60;99.90;;;;;;5057362;28;20044;-71
2022/06/06 00:03:39;;;;;;;18.60;15.52;;;15.50;99.90;;;;;;5057140;28;20067;-70
2022/06/06 00:06:09;;;;;;;22.48;17.88;;;15.50;99.90;;;;;;5056876;28;20105;-71
2022/06/06 00:08:35;;;;;;;18.98;16.45;;;15.40;99.90;;;;;;5057267;28;20076;-71
2022/06/06 00:11:01;;;;;;;21.20;17.13;;;15.40;99.90;;;;;;5057085;28;20064;-71
2022/06/06 00:13:27;;;;;;;19.48;16.00;;;15.50;99.90;;;;;;5056994;28;20040;-71
2022/06/06 00:15:53;;;;;;;18.23;16.15;;;15.50;99.90;;;;;;5057005;28;20468;-70
2022/06/06 00:18:18;;;;;;;24.73;16.75;;;15.40;99.90;;;;;;5057065;28;20048;-71
2022/06/06 00:20:44;;;;;;;18.80;16.83;;;15.40;99.90;;;;;;5057009;28;20082;-70
2022/06/06 00:23:09;;;;;;;19.25;17.20;;;15.40;99.90;;;;;;5056667;28;20037;-70
2022/06/06 00:25:35;;;;;;;17.92;16.02;;;15.40;99.90;;;;;;5057184;28;20040;-70
2022/06/06 00:28:00;;;;;;;18.33;16.08;;;15.50;99.90;;;;;;5056402;28;20091;-69
2022/06/06 00:30:26;;;;;;;18.85;16.17;;;15.40;99.90;;;;;;5056528;28;20048;-70
2022/06/06 00:35:36;;;;;;;14.38;12.93;;;15.40;99.90;;;;;;5056625;28;20052;-71
2022/06/06 00:38:02;;;;;;;14.90;13.23;;;15.30;99.90;;;;;;5056007;28;20044;-71
2022/06/06 00:40:30;;;;;;;13.73;12.32;;;15.40;99.90;;;;;;5056060;28;20040;-70
2022/06/06 00:42:56;;;;;;;12.00;10.80;;;15.30;99.90;;;;;;5055958;28;20043;-70
2022/06/06 00:45:37;;;;;;;12.23;11.05;;;15.30;99.90;;;;;;5056205;28;20126;-70
2022/06/06 00:48:11;;;;;;;11.97;10.70;;;15.30;99.90;;;;;;5055948;28;20051;-70
2022/06/06 00:50:57;;;;;;;11.73;10.52;;;15.30;99.90;;;;;;5039137;28;20090;-70
2022/06/06 00:53:46;;;;;;;12.15;11.05;;;15.30;99.90;;;;;;5055918;28;20105;-70
2022/06/06 00:56:18;;;;;;;14.50;13.00;;;15.20;99.90;;;;;;5055738;28;20072;-70
2022/06/06 00:58:47;;;;;;;13.85;12.45;;;15.20;99.90;;;;;;5056126;28;20393;-70
2022/06/06 01:01:13;;;;;;;13.57;12.18;;;15.30;99.90;;;;;;5039191;28;20068;-70
2022/06/06 01:03:40;;;;;;;15.52;13.77;;;15.20;99.90;;;;;;5055844;28;20052;-71
2022/06/06 01:06:10;;;;;;;13.63;12.27;;;15.20;99.90;;;;;;5055539;28;20532;-71
2022/06/06 01:08:40;;;;;;;14.52;13.15;;;15.20;99.90;;;;;;5055516;28;20044;-70
2022/06/06 01:11:06;;;;;;;13.73;12.35;;;15.20;99.90;;;;;;5039096;28;20102;-70
2022/06/06 01:13:33;;;;;;;16.17;13.30;;;15.20;99.90;;;;;;5055292;28;20486;-71
2022/06/06 01:16:37;;;;;;;14.63;13.10;;;15.20;99.90;;;;;;5038741;28;20044;-70
2022/06/06 01:19:22;;;;;;;11.90;10.70;;;15.20;99.90;;;;;;5038361;28;20102;-69
2022/06/06 01:22:23;;;;;;;11.40;10.30;;;15.20;99.90;;;;;;5054864;28;20028;-70
2022/06/06 01:25:09;;;;;;;10.82;9.43;;;15.20;99.90;;;;;;5054767;28;20045;-70
2022/06/06 01:27:57;;;;;;;9.98;8.98;;;15.10;99.90;;;;;;5054716;28;20052;-70
2022/06/06 01:30:29;;;;;;;10.10;7.97;;;15.10;99.90;;;;;;5054767;28;20541;-70
2022/06/06 01:33:01;;;;;;;8.73;7.90;;;15.10;99.90;;;;;;5054792;28;20486;-70
2022/06/06 01:35:35;;;;;;;8.80;7.90;;;15.10;99.90;;;;;;5038311;28;20097;-70
2022/06/06 01:38:01;;;;;;;8.57;7.78;;;15.10;99.90;;;;;;5037868;28;20079;-70
2022/06/06 01:40:36;;;;;;;7.53;6.82;;;15.10;99.90;;;;;;5038032;28;20089;-70
2022/06/06 01:43:09;;;;;;;7.18;6.57;;;15.10;99.90;;;;;;5055314;28;20474;-70
2022/06/06 01:45:47;;;;;;;7.18;6.50;;;15.10;99.90;;;;;;5038140;28;20032;-70
2022/06/06 01:48:17;;;;;;;8.18;7.30;;;15.10;99.90;;;;;;5054740;28;20148;-70
2022/06/06 01:50:44;;;;;;;7.25;6.63;;;15.10;99.90;;;;;;5054689;28;20051;-70
2022/06/06 01:53:13;;;;;;;7.20;6.50;;;15.10;99.90;;;;;;5072808;28;20040;-70
2022/06/06 01:55:42;;;;;;;6.88;6.28;;;15.00;99.90;;;;;;5054345;28;20072;-70
2022/06/06 01:58:12;;;;;;;7.30;6.55;;;15.10;99.90;;;;;;5054589;28;20044;-70
2022/06/06 02:00:38;;;;;;;6.60;6.00;;;15.10;99.90;;;;;;5054384;28;20037;-71
2022/06/06 02:03:04;;;;;;;6.60;6.10;;;15.10;99.90;;;;;;5054434;28;20043;-70
2022/06/06 02:05:30;;;;;;;6.85;6.25;;;15.10;99.90;;;;;;5054542;28;20117;-70
2022/06/06 02:07:56;;;;;;;6.35;5.75;;;15.10;99.90;;;;;;5054431;28;20086;-70
2022/06/06 02:10:22;;;;;;;6.82;6.13;;;15.10;99.90;;;;;;5038306;28;20076;-70
2022/06/06 02:12:48;;;;;;;6.10;5.60;;;15.10;99.90;;;;;;5054190;28;20036;-70
2022/06/06 02:15:16;;;;;;;7.13;6.47;;;15.00;99.90;;;;;;5037879;28;20040;-70
2022/06/06 02:17:42;;;;;;;7.88;6.72;;;15.00;99.90;;;;;;5054410;28;20525;-71
2022/06/06 02:20:09;;;;;;;7.30;6.70;;;14.90;99.90;;;;;;5054134;28;20064;-71
2022/06/06 02:22:35;;;;;;;6.72;6.13;;;15.00;99.90;;;;;;5054274;28;20516;-71
2022/06/06 02:25:02;;;;;;;7.32;6.68;;;14.90;99.90;;;;;;5037678;28;20127;-71
2022/06/06 02:27:28;;;;;;;6.40;5.80;;;14.90;99.90;;;;;;5054493;28;20048;-71
2022/06/06 02:29:54;;;;;;;6.45;5.85;;;14.90;99.90;;;;;;5053782;28;20098;-71
2022/06/06 02:32:20;;;;;;;7.60;6.90;;;14.90;99.90;;;;;;5054212;28;20367;-72
2022/06/06 02:34:45;;;;;;;7.25;6.65;;;14.90;99.90;;;;;;5053992;28;20037;-71
2022/06/06 02:37:11;;;;;;;7.30;6.60;;;14.90;99.90;;;;;;5037162;28;20040;-71
2022/06/06 02:39:37;;;;;;;7.13;6.43;;;14.80;99.90;;;;;;5053873;28;20534;-69
2022/06/06 02:42:03;;;;;;;7.07;6.38;;;14.80;99.90;;;;;;5053739;28;20482;-70
2022/06/06 02:44:28;;;;;;;8.10;7.38;;;14.80;99.90;;;;;;5054017;28;20068;-71
2022/06/06 02:46:54;;;;;;;8.25;7.45;;;14.80;99.90;;;;;;5053664;28;20048;-70
2022/06/06 02:49:19;;;;;;;8.40;7.15;;;14.80;99.90;;;;;;5054217;28;20036;-71
2022/06/06 02:51:45;;;;;;;8.55;7.38;;;14.80;99.90;;;;;;5053862;28;20048;-71
2022/06/06 02:54:10;;;;;;;8.38;7.60;;;14.80;99.90;;;;;;5054035;28;20059;-71
2022/06/06 02:56:36;;;;;;;11.40;9.20;;;14.80;99.90;;;;;;5036782;28;20048;-71
2022/06/06 02:59:06;;;;;;;9.68;8.70;;;14.80;99.90;;;;;;5054018;28;20098;-72
2022/06/06 03:01:31;;;;;;;9.88;8.50;;;14.80;99.90;;;;;;5039080;28;20093;-71
2022/06/06 03:03:57;;;;;;;11.07;9.70;;;14.70;99.90;;;;;;5057555;28;20477;-71
2022/06/06 03:06:37;;;;;;;11.57;10.40;;;14.70;99.90;;;;;;5057692;28;20123;-72
2022/06/06 03:09:09;;;;;;;10.80;9.57;;;14.60;99.90;;;;;;5057821;28;20478;-71
2022/06/06 03:12:05;;;;;;;10.77;9.70;;;14.70;99.90;;;;;;5057557;28;20429;-71
2022/06/06 03:14:49;;;;;;;10.80;9.70;;;14.70;99.90;;;;;;5057404;28;20037;-71
2022/06/06 03:20:46;;;;;;;9.55;7.82;;;14.70;99.90;;;;;;5073838;28;20127;-71
2022/06/06 03:23:46;;;;;;;12.65;8.27;;;14.70;99.90;;;;;;5056825;28;20056;-71
2022/06/06 03:26:37;;;;;;;8.43;7.63;;;14.70;99.90;;;;;;5040461;28;20094;-70
2022/06/06 03:29:12;;;;;;;6.68;6.07;;;14.70;99.90;;;;;;5057009;28;20123;-70
2022/06/06 03:32:02;;;;;;;6.40;5.80;;;14.70;99.90;;;;;;5056993;28;20048;-70
2022/06/06 03:34:44;;;;;;;5.75;5.30;;;14.80;99.90;;;;;;5057070;28;20077;-71
2022/06/06 03:37:26;;;;;;;6.70;6.20;;;14.70;99.90;;;;;;5056973;28;20556;-71
2022/06/06 03:40:00;;;;;;;;;;;14.70;99.90;;;;;;5057594;28;20066;-71
2022/06/06 03:42:44;;;;;;;4.82;4.43;;;14.70;99.90;;;;;;5040613;28;20073;-71
2022/06/06 03:45:47;;;;;;;4.40;4.10;;;14.70;99.90;;;;;;5057172;28;20040;-71
2022/06/06 03:48:41;;;;;;;4.50;4.10;;;14.60;99.90;;;;;;5056898;28;20036;-70
2022/06/06 03:51:21;;;;;;;5.25;4.82;;;14.70;99.90;;;;;;5074454;28;20056;-71
2022/06/06 03:53:47;;;;;;;6.38;5.72;;;14.70;99.90;;;;;;5056951;28;20482;-71
2022/06/06 03:56:37;;;;;;;6.97;5.85;;;14.80;99.90;;;;;;5056624;28;20051;-70
2022/06/06 03:59:04;;;;;;;6.57;5.82;;;14.70;99.90;;;;;;5056521;28;20131;-70
2022/06/06 04:01:31;;;;;;;8.30;6.93;;;14.70;99.90;;;;;;5056787;28;20083;-71
2022/06/06 04:03:58;;;;;;;7.95;7.13;;;14.70;99.90;;;;;;5056411;28;20044;-70
2022/06/06 04:06:28;;;;;;;10.13;9.15;;;14.70;99.90;;;;;;5056625;28;20417;-70
2022/06/06 04:08:54;;;;;;;10.88;8.73;;;14.70;99.90;;;;;;5056782;28;20041;-70
2022/06/06 04:11:29;;;;;;;11.65;9.65;;;14.70;99.90;;;;;;5055501;28;20048;-69
2022/06/06 04:14:07;;;;;;;13.05;10.80;;;14.70;99.90;;;;;;5039759;28;20097;-69
2022/06/06 04:16:51;;;;;;;11.85;10.07;;;14.70;99.90;;;;;;5055807;28;20044;-70
2022/06/06 04:19:53;;;;;;;11.57;10.15;;;14.70;99.90;;;;;;5056245;28;20486;-70
2022/06/06 04:22:38;;;;;;;;;;;14.60;99.90;;;;;;5039913;28;20036;-70
2022/06/06 04:25:38;;;;;;;11.38;9.27;;;14.60;99.90;;;;;;5039040;28;19920;-70
2022/06/06 04:28:30;;;;;;;13.50;9.95;;;14.60;99.90;;;;;;5056130;28;20036;-70
2022/06/06 04:31:39;;;;;;;10.32;7.72;;;14.60;99.90;;;;;;5056543;28;20051;-70
2022/06/06 04:34:32;;;;;;;10.60;8.23;;;14.60;99.90;;;;;;5011671;28;20131;-72
2022/06/06 04:37:21;;;;;;;9.38;7.40;;;14.60;99.90;;;;;;5056119;28;20037;-68
2022/06/06 04:40:15;;;;;;;9.50;7.28;;;14.60;99.90;;;;;;5055784;28;20079;-70
2022/06/06 04:42:47;;;;;;;7.70;6.95;;;14.50;99.90;;;;;;5055838;28;20037;-70
2022/06/06 04:45:32;;;;;;;;;;;14.50;99.90;;;;;;5056108;28;20090;-71
2022/06/06 04:47:59;;;;;;;10.30;6.68;;;14.50;99.90;;;;;;5055105;28;19916;-71
2022/06/06 04:50:25;;;;;;;8.00;7.03;;;14.50;99.90;;;;;;5055347;28;20041;-71
2022/06/06 04:52:59;;;;;;;7.70;6.57;;;14.50;99.90;;;;;;5055843;28;20048;-71
2022/06/06 04:55:26;;;;;;;11.95;8.50;;;14.50;99.90;;;;;;5055638;28;20048;-71
2022/06/06 04:57:55;;;;;;;8.63;7.07;;;14.50;99.90;;;;;;5054968;28;20052;-71
2022/06/06 05:00:21;;;;;;;10.45;8.15;;;14.50;99.90;;;;;;5039049;28;20085;-71
2022/06/06 05:02:47;;;;;;;11.35;8.18;;;14.50;99.90;;;;;;5039140;28;20370;-71
2022/06/06 05:05:13;;;;;;;10.48;7.57;;;14.50;99.90;;;;;;5055441;28;20123;-71
2022/06/06 05:08:03;;;;;;;9.57;7.30;;;14.50;99.90;;;;;;5055228;28;20175;-72
2022/06/06 05:11:02;;;;;;;11.57;8.45;;;14.50;99.90;;;;;;5038505;28;20076;-71
2022/06/06 05:13:51;;;;;;;12.48;8.73;;;14.40;99.90;;;;;;5054829;28;20045;-71
2022/06/06 05:16:37;;;;;;;13.65;10.60;;;14.30;99.90;;;;;;5026568;28;20086;-71
2022/06/06 05:19:20;;;;;;;14.70;11.48;;;14.30;99.90;;;;;;5038024;28;20394;-71
2022/06/06 05:22:13;;;;;;;16.73;11.93;;;14.30;99.90;;;;;;5054498;28;20115;-71
2022/06/06 05:25:01;;;;;;;17.05;13.88;;;14.30;99.90;;;;;;5053772;28;20053;-72
2022/06/06 05:27:27;;;;;;;18.23;13.13;;;14.30;99.90;;;;;;5054580;28;20405;-71
2022/06/06 05:30:01;;;;;;;18.67;15.07;;;14.40;99.90;;;;;;5038286;28;20070;-71
2022/06/06 05:32:58;;;;;;;18.73;14.50;;;14.40;99.90;;;;;;5054681;28;20304;-71
2022/06/06 05:35:33;;;;;;;19.10;14.40;;;14.30;99.90;;;;;;5054383;28;20076;-71
2022/06/06 05:38:36;;;;;;;24.13;16.65;;;14.40;99.90;;;;;;5054442;28;20079;-71
2022/06/06 05:41:23;;;;;;;24.65;18.52;;;14.40;99.90;;;;;;5050811;28;20474;-71
2022/06/06 05:43:56;;;;;;;21.80;17.80;;;14.30;99.90;;;;;;5054254;28;20072;-70
2022/06/06 05:46:33;;;;;;;22.35;18.23;;;14.30;99.90;;;;;;5054467;28;20090;-70
2022/06/06 05:49:34;;;;;;;25.00;20.35;;;14.30;99.90;;;;;;5054319;28;20129;-70
2022/06/06 05:52:19;;;;;;;23.60;19.10;;;14.30;99.90;;;;;;5054659;28;20037;-70
2022/06/06 05:55:06;;;;;;;22.33;19.55;;;14.30;99.90;;;;;;5037255;28;20044;-71
2022/06/06 05:58:02;;;;;;;22.17;18.60;;;14.30;99.90;;;;;;5054234;28;20040;-72
2022/06/06 06:00:56;;;;;;;23.63;18.77;;;14.30;99.90;;;;;;5053813;28;20040;-72
2022/06/06 06:03:40;;;;;;;22.25;16.55;;;14.30;99.90;;;;;;5054136;28;20433;-69
2022/06/06 06:06:16;;;;;;;19.05;15.70;;;14.30;99.90;;;;;;5054274;28;20043;-71
2022/06/06 06:09:00;;;;;;;18.85;16.10;;;14.30;99.90;;;;;;5053667;28;20037;-71
2022/06/06 06:11:39;;;;;;;23.73;16.83;;;14.30;99.90;;;;;;5053881;28;20482;-71
2022/06/06 06:14:18;;;;;;;17.25;14.75;;;14.30;99.90;;;;;;5037200;28;20048;-70
2022/06/06 06:16:49;;;;;;;15.80;12.32;;;14.30;99.90;;;;;;5053519;28;20612;-70
2022/06/06 06:19:18;;;;;;;15.23;12.73;;;14.40;99.90;;;;;;5036790;28;20040;-70
2022/06/06 06:21:54;;;;;;;18.10;13.32;;;14.40;99.90;;;;;;5053085;28;20036;-71
2022/06/06 06:24:27;;;;;;;16.60;13.23;;;14.30;99.90;;;;;;5053280;28;20369;-70
2022/06/06 06:26:57;;;;;;;13.10;11.10;;;14.30;99.90;;;;;;5053308;28;20049;-71
2022/06/06 06:29:23;;;;;;;12.85;10.05;;;14.40;99.90;;;;;;5036771;28;20040;-69
2022/06/06 06:32:10;;;;;;;12.25;10.00;;;14.40;99.90;;;;;;5036279;28;20119;-70
2022/06/06 06:35:14;;;;;;;14.10;11.07;;;14.40;99.90;;;;;;5036386;28;20048;-70
2022/06/06 06:38:16;;;;;;;12.30;10.13;;;14.40;99.90;;;;;;5052948;28;20040;-70
2022/06/06 06:40:41;;;;;;;16.23;11.13;;;14.40;99.90;;;;;;5052836;28;20044;-71
2022/06/06 06:43:41;;;;;;;11.35;9.65;;;14.40;99.90;;;;;;5052645;28;20515;-71
2022/06/06 06:46:17;;;;;;;12.18;10.00;;;14.40;99.90;;;;;;5053024;28;20115;-70
2022/06/06 06:48:45;;;;;;;14.45;10.73;;;14.50;99.90;;;;;;5052739;28;20043;-70
2022/06/06 06:51:32;;;;;;;12.93;11.27;;;14.50;99.90;;;;;;5052479;28;20493;-71
2022/06/06 06:54:11;;;;;;;13.88;10.75;;;14.50;99.90;;;;;;5052683;28;20043;-70
2022/06/06 06:56:55;;;;;;;12.13;10.18;;;14.50;99.90;;;;;;5052788;28;20040;-71
2022/06/06 06:59:48;;;;;;;11.15;9.90;;;14.50;99.90;;;;;;5052464;28;20482;-71
2022/06/06 07:08:34;;;;;;;8.98;8.00;;;15.70;99.90;;;;;;5069491;28;20048;-71
2022/06/06 07:11:37;;;;;;;9.82;7.45;;;16.20;99.90;;;;;;5052651;28;20101;-72
2022/06/06 07:14:08;;;;;;;8.60;6.43;;;16.90;99.90;;;;;;5052464;28;20083;-71
2022/06/06 07:16:36;;;;;;;8.10;6.43;;;17.40;99.90;;;;;;5052268;28;20046;-71
2022/06/06 07:19:12;;;;;;;6.85;5.43;;;17.70;99.90;;;;;;5052247;28;20350;-71
2022/06/06 07:21:39;;;;;;;5.90;4.82;;;18.30;99.90;;;;;;5052441;28;20486;-73
2022/06/06 07:24:08;;;;;;;6.75;4.47;;;19.30;99.90;;;;;;5051968;28;20533;-71
2022/06/06 07:26:41;;;;;;;6.22;4.85;;;20.30;99.90;;;;;;5052516;28;20029;-72
2022/06/06 07:29:10;;;;;;;4.40;4.00;;;20.90;99.90;;;;;;5052260;28;20043;-70
2022/06/06 07:32:11;;;;;;;6.10;4.13;;;20.60;99.90;;;;;;5052227;28;20541;-71
2022/06/06 07:35:18;;;;;;;5.18;4.30;;;20.00;99.90;;;;;;5017400;28;20045;-71
2022/06/06 07:37:54;;;;;;;5.10;3.50;;;19.30;99.90;;;;;;5029943;22;20056;-73
2022/06/06 07:40:23;;;;;;;4.57;3.22;;;19.10;99.90;;;;;;5028151;28;20049;-72
2022/06/06 07:43:10;;;;;;;4.45;3.25;;;19.00;99.90;;;;;;5028389;28;20051;-72
2022/06/06 07:45:46;;;;;;;4.72;3.20;;;19.10;99.90;;;;;;5028448;28;20049;-72
2022/06/06 07:48:11;;;;;;;5.05;3.22;;;19.20;99.90;;;;;;5031331;28;20040;-73
2022/06/06 07:50:53;;;;;;;3.80;2.95;;;19.30;99.90;;;;;;5031941;28;20049;-74
2022/06/06 07:53:34;;;;;;;3.15;2.83;;;19.50;99.90;;;;;;5048618;28;20045;-73
2022/06/06 07:56:12;;;;;;;4.47;2.72;;;19.50;99.90;;;;;;5031784;28;20482;-73
2022/06/06 07:59:12;;;;;;;4.40;3.05;;;19.50;99.90;;;;;;5031611;28;20042;-73
2022/06/06 08:02:03;;;;;;;4.35;3.22;;;19.30;99.90;;;;;;5031734;28;20045;-73
2022/06/06 08:05:07;;;;;;;4.63;3.45;;;18.90;99.90;;;;;;5031766;28;20041;-73
2022/06/06 08:07:52;;;;;;;4.95;3.65;;;19.00;99.90;;;;;;5031589;28;20051;-73
2022/06/06 08:10:41;;;;;;;5.18;3.78;;;19.00;99.90;;;;;;5031411;28;20052;-73
2022/06/06 08:13:38;;;;;;;5.05;4.15;;;18.90;99.90;;;;;;5023365;28;20064;-73
2022/06/06 08:16:08;;;;;;;4.38;3.80;;;18.90;99.90;;;;;;5020765;28;20045;-73
2022/06/06 08:18:53;;;;;;;5.45;3.90;;;19.10;99.90;;;;;;5031253;28;20041;-73
2022/06/06 08:21:46;;;;;;;7.15;4.50;;;19.10;99.90;;;;;;5031513;28;20497;-74
2022/06/06 08:24:16;;;;;;;7.03;4.53;;;18.80;99.90;;;;;;5031437;28;20095;-73
2022/06/06 08:26:46;;;;;;;4.90;4.35;;;18.60;99.90;;;;;;5031354;28;20045;-73
2022/06/06 08:29:12;;;;;;;8.20;4.55;;;18.40;99.90;;;;;;5031228;28;20045;-73
2022/06/06 08:31:38;;;;;;;6.70;4.70;;;18.30;99.90;;;;;;5031104;28;20487;-74
2022/06/06 08:34:04;;;;;;;7.25;4.30;;;18.40;99.90;;;;;;5030999;28;20037;-73
2022/06/06 08:36:38;;;;;;;7.57;4.20;;;18.50;99.90;;;;;;5031279;28;20049;-74
2022/06/06 08:39:16;;;;;;;6.10;4.38;;;18.60;99.90;;;;;;5030762;28;20054;-74
2022/06/06 08:41:57;;;;;;;6.65;4.15;;;18.60;99.90;;;;;;5031202;28;20375;-73
2022/06/06 08:44:27;;;;;;;6.50;4.60;;;18.50;99.90;;;;;;5030966;28;20034;-74
2022/06/06 08:46:59;;;;;;;6.38;3.92;;;18.70;99.90;;;;;;5030900;28;20080;-73
2022/06/06 08:52:55;;;;;;;5.03;3.28;;;18.60;99.90;;;;;;5047309;28;20313;-73
2022/06/06 08:55:33;;;;;;;5.22;3.63;;;18.40;99.90;;;;;;5030783;28;20060;-73
2022/06/06 08:58:28;;;;;;;5.68;3.40;;;18.30;99.90;;;;;;5013463;28;20087;-73
2022/06/06 09:01:21;;;;;;;6.25;3.20;;;18.30;99.90;;;;;;5019864;28;20053;-73
2022/06/06 09:04:19;;;;;;;4.15;2.95;;;18.50;99.90;;;;;;5030677;28;20436;-73
2022/06/06 09:07:18;;;;;;;4.00;2.88;;;18.40;99.90;;;;;;5030548;28;20056;-73
2022/06/06 09:10:21;;;;;;;5.60;2.58;;;18.40;99.90;;;;;;5030506;28;20045;-73
2022/06/06 09:13:24;;;;;;;3.95;2.28;;;18.50;99.90;;;;;;5030344;28;20340;-73
2022/06/06 09:16:35;;;;;;;4.47;2.13;;;18.80;99.90;;;;;;5030198;28;20116;-73
2022/06/06 09:19:28;;;;;;;5.35;1.80;;;19.10;99.90;;;;;;5030604;28;20128;-73
2022/06/06 09:22:25;;;;;;;3.67;1.83;;;19.30;99.90;;;;;;5030338;28;20107;-73
2022/06/06 09:25:13;;;;;;;2.85;1.67;;;19.40;99.90;;;;;;5009369;28;20045;-73
2022/06/06 09:28:19;;;;;;;4.28;1.85;;;19.30;99.90;;;;;;5030118;28;20057;-73
2022/06/06 09:31:20;;;;;;;4.00;1.80;;;19.20;99.90;;;;;;5030022;28;20120;-73
2022/06/06 09:34:04;;;;;;;8.32;2.20;;;18.90;99.90;;;;;;4979684;28;20088;-74
2022/06/06 09:36:50;;;;;;;4.45;1.88;;;19.20;99.90;;;;;;5029826;28;20048;-73
2022/06/06 09:39:32;;;;;;;3.67;2.30;;;19.40;99.90;;;;;;4999435;28;20053;-73
2022/06/06 09:42:02;;;;;;;;;;;19.30;99.90;;;;;;5013699;28;20053;-72
2022/06/06 09:44:50;;;;;;;6.25;1.55;;;19.10;99.90;;;;;;5030068;28;19916;-72
2022/06/06 09:47:46;;;;;;;4.30;1.60;;;19.10;99.90;;;;;;5029612;28;20038;-72
2022/06/06 09:50:26;;;;;;;3.92;1.50;;;18.80;99.90;;;;;;5029633;28;20094;-72
2022/06/06 09:53:27;;;;;;;3.28;1.25;;;18.30;99.90;;;;;;5029624;28;20487;-72
2022/06/06 09:59:17;;;;;;;3.58;1.63;;;18.10;99.90;;;;;;5046067;28;20042;-73
2022/06/06 10:02:22;;;;;;;4.38;1.77;;;17.90;99.90;;;;;;5029424;28;20048;-72
2022/06/06 10:05:01;;;;;;;3.63;1.80;;;17.80;99.90;;;;;;5029470;28;20103;-73
2022/06/06 10:07:27;;;;;;;3.83;1.92;;;17.80;99.90;;;;;;5013159;28;20505;-73
2022/06/06 10:10:31;;;;;;;4.00;1.85;;;17.90;99.90;;;;;;5029194;28;20091;-73
2022/06/06 10:13:21;;;;;;;3.55;2.00;;;17.90;99.90;;;;;;5029371;28;20034;-72
2022/06/06 10:16:21;;;;;;;3.88;2.33;;;17.90;99.90;;;;;;5029130;28;20053;-73
2022/06/06 10:19:02;;;;;;;3.83;2.10;;;17.80;99.90;;;;;;5029065;28;20514;-71
2022/06/06 10:21:36;;;;;;;4.55;1.83;;;17.80;99.90;;;;;;5029082;28;20120;-71
2022/06/06 10:24:15;;;;;;;3.70;1.92;;;17.90;99.90;;;;;;5029188;28;20034;-72
2022/06/06 10:26:55;;;;;;;2.35;1.73;;;18.10;99.90;;;;;;5029352;28;20495;-72
2022/06/06 10:32:42;;;;;;;5.20;2.35;;;18.10;99.90;;;;;;5045554;28;20045;-72
2022/06/06 10:35:51;;;;;;;3.17;1.63;;;17.60;99.90;;;;;;5029227;28;20044;-71
2022/06/06 10:38:27;;;;;;;2.85;1.00;;;17.00;99.90;;;;;;5028819;28;20068;-72
2022/06/06 10:40:52;;;;;;;1.80;1.40;;;16.50;99.90;;;;;;5028917;28;20048;-72
2022/06/06 10:43:33;;;;;;;3.00;1.48;;;16.20;99.90;;;;;;5028890;28;20483;-72
2022/06/06 10:45:59;;;;;;;2.80;1.58;;;16.00;99.90;;;;;;5028917;28;20048;-72
2022/06/06 10:48:34;;;;;;;2.42;1.63;;;15.90;99.90;;;;;;5028905;28;20407;-73
2022/06/06 10:51:37;;;;;;;3.38;2.20;;;15.80;99.90;;;;;;5029307;28;20037;-72
2022/06/06 10:54:26;;;;;;;3.55;2.20;;;15.90;99.90;;;;;;5012618;28;20045;-73
2022/06/06 10:57:35;;;;;;;3.40;2.45;;;16.10;99.90;;;;;;5028636;28;20050;-72
2022/06/06 11:00:07;;;;;;;4.65;3.00;;;16.50;99.90;;;;;;4991290;28;20048;-73
2022/06/06 11:03:06;;;;;;;3.35;2.83;;;16.80;99.90;;;;;;5028710;28;20044;-73
2022/06/06 11:05:44;;;;;;;4.57;2.80;;;17.00;99.90;;;;;;5028973;28;20088;-72
2022/06/06 11:08:22;;;;;;;3.47;2.33;;;17.40;99.90;;;;;;5028810;28;20498;-72
2022/06/06 11:11:09;;;;;;;2.47;1.80;;;17.70;99.90;;;;;;5029027;28;20136;-72
2022/06/06 11:14:08;;;;;;;4.63;2.10;;;18.00;99.90;;;;;;5028583;28;20053;-72
2022/06/06 11:16:43;;;;;;;2.92;1.70;;;18.10;99.90;;;;;;5008580;28;20049;-72
2022/06/06 11:19:11;;;;;;;3.55;1.85;;;18.10;99.90;;;;;;5028642;28;20499;-72
2022/06/06 11:22:03;;;;;;;2.67;1.60;;;18.30;99.90;;;;;;5029212;28;20180;-72
2022/06/06 11:24:31;;;;;;;3.38;1.63;;;18.50;99.90;;;;;;5032473;28;20045;-73
2022/06/06 11:27:21;;;;;;;4.05;1.77;;;18.60;99.90;;;;;;5032241;28;20061;-72
2022/06/06 11:30:07;;;;;;;2.17;1.40;;;18.90;99.90;;;;;;5032456;28;20506;-72
2022/06/06 11:32:55;;;;;;;2.88;2.00;;;19.00;99.90;;;;;;5032238;28;20077;-72
2022/06/06 11:36:05;;;;;;;3.03;1.63;;;19.20;99.90;;;;;;5032260;28;20125;-73
2022/06/06 11:38:34;;;;;;;4.47;1.88;;;19.40;99.90;;;;;;5031782;28;20045;-73
2022/06/06 11:41:27;;;;;;;4.97;1.80;;;19.20;99.90;;;;;;5032143;28;20044;-72
2022/06/06 11:44:26;;;;;;;3.58;2.25;;;19.10;99.90;;;;;;5031968;28;20391;-72
2022/06/06 11:47:33;;;;;;;3.97;1.83;;;18.80;99.90;;;;;;5032265;28;20548;-71
2022/06/06 11:50:36;;;;;;;7.30;2.28;;;18.80;99.90;;;;;;5032008;28;20080;-71
2022/06/06 11:53:28;;;;;;;2.67;1.70;;;18.90;99.90;;;;;;5031816;28;20033;-72
2022/06/06 11:56:30;;;;;;;2.75;1.50;;;18.90;99.90;;;;;;5031759;28;20041;-72
2022/06/06 11:59:20;;;;;;;6.10;1.58;;;19.00;99.90;;;;;;5031693;28;20071;-72
2022/06/06 12:01:58;;;;;;;6.18;1.60;;;19.00;99.90;;;;;;5031787;28;20041;-72
2022/06/06 12:05:00;;;;;;;4.55;1.60;;;19.20;99.90;;;;;;5031710;28;20492;-73
2022/06/06 12:08:04;;;;;;;4.22;1.73;;;19.40;99.90;;;;;;5031565;28;20049;-72
2022/06/06 12:10:47;;;;;;;2.78;1.60;;;19.70;99.90;;;;;;5031837;28;20128;-73
2022/06/06 12:13:32;;;;;;;3.05;1.60;;;19.80;99.90;;;;;;5031505;28;20071;-72
2022/06/06 12:16:15;;;;;;;3.92;1.73;;;19.70;99.90;;;;;;5031511;28;20049;-73
2022/06/06 12:18:49;;;;;;;2.80;1.50;;;19.60;99.90;;;;;;5031488;28;20081;-72
2022/06/06 12:21:35;;;;;;;4.13;1.10;;;19.40;99.90;;;;;;5031708;28;20533;-73
2022/06/06 12:24:13;;;;;;;4.03;1.20;;;19.30;99.90;;;;;;5031455;28;20398;-72
2022/06/06 12:27:00;;;;;;;1.45;0.65;;;19.40;99.90;;;;;;5031546;28;20198;-72
2022/06/06 12:30:01;;;;;;;2.33;0.80;;;19.50;99.90;;;;;;5031076;28;20044;-72
2022/06/06 12:33:03;;;;;;;2.47;1.02;;;19.70;99.90;;;;;;5031190;28;20387;-73
2022/06/06 12:35:35;;;;;;;;;;;20.00;99.90;;;;;;5031825;28;20635;-72
2022/06/06 12:38:38;;;;;;;1.80;0.77;;;20.10;99.90;;;;;;5030730;28;20391;-72
2022/06/06 12:41:24;;;;;;;1.25;0.90;;;19.90;99.90;;;;;;5031232;28;20048;-72
2022/06/06 12:43:49;;;;;;;2.30;0.80;;;20.00;99.90;;;;;;5030869;28;20471;-73
2022/06/06 12:46:48;;;;;;;0.90;0.70;;;20.00;99.90;;;;;;5031128;28;20049;-72
2022/06/06 12:49:44;;;;;;;3.58;0.70;;;20.10;99.90;;;;;;5022786;28;20139;-72
2022/06/06 12:52:22;;;;;;;2.08;0.60;;;20.10;99.90;;;;;;5014562;28;20475;-73
2022/06/06 12:55:41;;;;;;;1.05;0.63;;;19.90;99.90;;;;;;5030535;28;20091;-73
2022/06/06 12:58:27;;;;;;;2.15;0.90;;;19.70;99.90;;;;;;4973609;28;20042;-73
2022/06/06 13:04:04;;;;;;;3.10;1.38;;;19.50;99.90;;;;;;5047018;28;20053;-73
2022/06/06 13:06:48;;;;;;;2.53;1.10;;;19.40;99.90;;;;;;5030497;28;20140;-73
2022/06/06 13:09:40;;;;;;;2.15;1.23;;;19.20;99.90;;;;;;5030632;28;20388;-73
2022/06/06 13:12:14;;;;;;;3.10;1.45;;;18.90;99.90;;;;;;5002487;28;20049;-73
2022/06/06 13:14:59;;;;;;;2.65;1.30;;;18.80;99.90;;;;;;5030240;28;20056;-72
2022/06/06 13:17:49;;;;;;;2.50;1.50;;;18.60;99.90;;;;;;5030459;28;20038;-72
2022/06/06 13:20:49;;;;;;;3.08;1.30;;;18.50;99.90;;;;;;5030264;28;20045;-72
2022/06/06 13:23:39;;;;;;;1.95;1.50;;;18.50;99.90;;;;;;5030427;28;20041;-73
2022/06/06 13:26:34;;;;;;;2.38;1.20;;;18.70;99.90;;;;;;5030317;28;20096;-72
2022/06/06 13:29:00;;;;;;;3.50;1.35;;;18.70;99.90;;;;;;5030266;28;20060;-72
2022/06/06 13:31:41;;;;;;;1.27;1.05;;;18.70;99.90;;;;;;5013559;28;20041;-72
2022/06/06 13:34:45;;;;;;;2.28;1.40;;;18.80;99.90;;;;;;5029892;28;20056;-72
2022/06/06 13:37:16;;;;;;;2.88;1.10;;;18.80;99.90;;;;;;5029961;28;20084;-72
2022/06/06 13:40:00;;;;;;;1.98;1.20;;;18.60;99.90;;;;;;5029608;28;20057;-72
2022/06/06 13:42:40;;;;;;;2.55;1.00;;;18.60;99.90;;;;;;5030136;28;20124;-72
2022/06/06 13:45:29;;;;;;;1.80;1.08;;;18.30;99.90;;;;;;5029401;28;20045;-72
2022/06/06 13:48:01;;;;;;;2.28;0.90;;;18.30;99.90;;;;;;5029658;28;20045;-72
2022/06/06 13:50:52;;;;;;;2.05;1.08;;;18.10;99.90;;;;;;5029609;28;20045;-72
2022/06/06 13:53:36;;;;;;;1.80;1.20;;;18.00;99.90;;;;;;5029903;28;20048;-72
2022/06/06 13:56:15;;;;;;;2.40;1.30;;;18.00;99.90;;;;;;5029383;28;20048;-72
2022/06/06 13:58:56;;;;;;;1.52;1.40;;;17.70;99.90;;;;;;5029505;28;20092;-73
2022/06/06 14:01:31;;;;;;;3.17;1.73;;;17.40;99.90;;;;;;5029632;28;20502;-72
2022/06/06 14:04:15;;;;;;;2.97;1.90;;;17.10;99.90;;;;;;5029503;28;20050;-72
2022/06/06 14:06:43;;;;;;;3.97;2.05;;;17.10;99.90;;;;;;5029290;28;20083;-72
2022/06/06 14:09:15;;;;;;;2.58;2.10;;;16.70;99.90;;;;;;5029868;28;20049;-72
2022/06/06 14:12:04;;;;;;;;;;;16.60;99.90;;;;;;5029767;28;20049;-72
2022/06/06 14:14:32;;;;;;;4.07;2.78;;;16.50;99.90;;;;;;5029582;28;20275;-72
2022/06/06 14:17:02;;;;;;;4.38;3.10;;;16.50;99.90;;;;;;5029084;28;20049;-72